<?xml version="1.0" encoding="utf-8"?>
<gpx xmlns:xsi="http://www.w3.org/2001/XMLSchema-instance" xmlns:xsd="http://www.w3.org/2001/XMLSchema" version="1.1" creator="Shapelink.com" xmlns="http://www.topografix.com/GPX/1/1" xmlns:gpxtpx="http://www.garmin.com/xmlschemas/TrackPointExtension/v1">
  <metadata>
    <name>Natación 1.05 km, 2015-06-22</name>
    <desc></desc>
    <author><name>Henrik Amren</name></author> 
    <time>2015-06-22T17:15:18Z</time>
  </metadata>
  <trk>
    <name>Natación 1.05 km, 2015-06-22</name>
    <trkseg>
      <trkpt lat="39.8368994" lon="3.1265623">
        <ele>0</ele>
        <time>2015-06-22T17:15:18Z</time>
      </trkpt>
      <trkpt lat="39.8365477" lon="3.1269562">
        <ele>0</ele>
        <time>2015-06-22T17:16:25Z</time>
      </trkpt>
      <trkpt lat="39.8370227" lon="3.1270178">
        <ele>0</ele>
        <time>2015-06-22T17:17:45Z</time>
      </trkpt>
      <trkpt lat="39.8374369" lon="3.1275624">
        <ele>0</ele>
        <time>2015-06-22T17:18:48Z</time>
      </trkpt>
      <trkpt lat="39.8378036" lon="3.1282521">
        <ele>0</ele>
        <time>2015-06-22T17:20:17Z</time>
      </trkpt>
      <trkpt lat="39.8380077" lon="3.1285816">
        <ele>0</ele>
        <time>2015-06-22T17:20:44Z</time>
      </trkpt>
      <trkpt lat="39.8382556" lon="3.1289458">
        <ele>0</ele>
        <time>2015-06-22T17:21:45Z</time>
      </trkpt>
      <trkpt lat="39.8386008" lon="3.1294177">
        <ele>0</ele>
        <time>2015-06-22T17:22:55Z</time>
      </trkpt>
      <trkpt lat="39.8385402" lon="3.1299655">
        <ele>0</ele>
        <time>2015-06-22T17:24:00Z</time>
      </trkpt>
      <trkpt lat="39.8374579" lon="3.1287816">
        <ele>0</ele>
        <time>2015-06-22T17:25:31Z</time>
      </trkpt>
      <trkpt lat="39.8377737" lon="3.1288858">
        <ele>0</ele>
        <time>2015-06-22T17:26:02Z</time>
      </trkpt>
      <trkpt lat="39.8370764" lon="3.128034">
        <ele>0</ele>
        <time>2015-06-22T17:27:00Z</time>
      </trkpt>
      <trkpt lat="39.8374043" lon="3.1278952">
        <ele>0</ele>
        <time>2015-06-22T17:28:00Z</time>
      </trkpt>
      <trkpt lat="39.8368098" lon="3.1275192">
        <ele>0</ele>
        <time>2015-06-22T17:28:51Z</time>
      </trkpt>
      <trkpt lat="39.8365541" lon="3.1270965">
        <ele>0</ele>
        <time>2015-06-22T17:30:05Z</time>
      </trkpt>
      <trkpt lat="39.8362313" lon="3.1266877">
        <ele>0</ele>
        <time>2015-06-22T17:31:00Z</time>
      </trkpt>
      <trkpt lat="39.83665" lon="3.1261797">
        <ele>0</ele>
        <time>2015-06-22T17:32:02Z</time>
      </trkpt>
      <trkpt lat="39.8370353" lon="3.125796">
        <ele>0</ele>
        <time>2015-06-22T17:32:48Z</time>
      </trkpt>
      <trkpt lat="39.83744" lon="3.1256455">
        <ele>0</ele>
        <time>2015-06-22T17:33:17Z</time>
      </trkpt>
    </trkseg>
  </trk>
</gpx>